sensor_id;sensor_type;location;lat;lon;timestamp;P1;durP1;ratioP1;P2;durP2;ratioP2
56041;SDS011;48756;41.374;2.066;2022-09-02T00:01:36;5.85;;;3.28;;
56041;SDS011;48756;41.374;2.066;2022-09-02T00:04:06;6.43;;;3.03;;
56041;SDS011;48756;41.374;2.066;2022-09-02T00:06:33;5.40;;;3.38;;
56041;SDS011;48756;41.374;2.066;2022-09-02T00:09:00;3.90;;;2.97;;
56041;SDS011;48756;41.374;2.066;2022-09-02T00:11:27;7.70;;;4.10;;
56041;SDS011;48756;41.374;2.066;2022-09-02T00:13:55;5.75;;;3.13;;
56041;SDS011;48756;41.374;2.066;2022-09-02T00:16:21;5.50;;;3.40;;
56041;SDS011;48756;41.374;2.066;2022-09-02T00:18:49;9.15;;;2.80;;
56041;SDS011;48756;41.374;2.066;2022-09-02T00:21:16;4.05;;;2.88;;
56041;SDS011;48756;41.374;2.066;2022-09-02T00:23:42;4.55;;;2.80;;
56041;SDS011;48756;41.374;2.066;2022-09-02T00:26:09;3.05;;;2.35;;
56041;SDS011;48756;41.374;2.066;2022-09-02T00:28:35;3.38;;;3.08;;
56041;SDS011;48756;41.374;2.066;2022-09-02T00:31:00;4.88;;;2.95;;
56041;SDS011;48756;41.374;2.066;2022-09-02T00:33:29;6.40;;;3.65;;
56041;SDS011;48756;41.374;2.066;2022-09-02T00:35:57;4.30;;;3.35;;
56041;SDS011;48756;41.374;2.066;2022-09-02T00:38:25;4.78;;;3.05;;
56041;SDS011;48756;41.374;2.066;2022-09-02T00:40:51;6.03;;;3.15;;
56041;SDS011;48756;41.374;2.066;2022-09-02T00:43:25;7.90;;;4.43;;
56041;SDS011;48756;41.374;2.066;2022-09-02T00:46:12;5.30;;;1.90;;
56041;SDS011;48756;41.374;2.066;2022-09-02T00:48:42;7.22;;;2.97;;
56041;SDS011;48756;41.374;2.066;2022-09-02T00:51:18;5.53;;;3.42;;
56041;SDS011;48756;41.374;2.066;2022-09-02T00:53:44;3.78;;;2.92;;
56041;SDS011;48756;41.374;2.066;2022-09-02T00:56:18;4.40;;;2.80;;
56041;SDS011;48756;41.374;2.066;2022-09-02T00:58:47;7.93;;;3.22;;
56041;SDS011;48756;41.374;2.066;2022-09-02T01:01:14;6.15;;;3.28;;
56041;SDS011;48756;41.374;2.066;2022-09-02T01:03:40;4.70;;;3.00;;
56041;SDS011;48756;41.374;2.066;2022-09-02T01:06:07;5.70;;;3.78;;
56041;SDS011;48756;41.374;2.066;2022-09-02T01:08:35;6.75;;;3.88;;
56041;SDS011;48756;41.374;2.066;2022-09-02T01:11:03;2.83;;;2.25;;
56041;SDS011;48756;41.374;2.066;2022-09-02T01:13:31;8.60;;;2.67;;
56041;SDS011;48756;41.374;2.066;2022-09-02T01:16:03;5.18;;;3.20;;
56041;SDS011;48756;41.374;2.066;2022-09-02T01:18:48;6.80;;;2.92;;
56041;SDS011;48756;41.374;2.066;2022-09-02T01:21:16;5.20;;;3.13;;
56041;SDS011;48756;41.374;2.066;2022-09-02T01:23:42;6.90;;;4.25;;
56041;SDS011;48756;41.374;2.066;2022-09-02T01:26:09;7.25;;;3.03;;
56041;SDS011;48756;41.374;2.066;2022-09-02T01:28:38;3.90;;;3.42;;
56041;SDS011;48756;41.374;2.066;2022-09-02T01:31:04;4.38;;;3.95;;
56041;SDS011;48756;41.374;2.066;2022-09-02T01:33:30;9.40;;;3.22;;
56041;SDS011;48756;41.374;2.066;2022-09-02T01:35:55;7.70;;;3.30;;
56041;SDS011;48756;41.374;2.066;2022-09-02T01:38:22;5.60;;;3.03;;
56041;SDS011;48756;41.374;2.066;2022-09-02T01:40:48;5.75;;;3.63;;
56041;SDS011;48756;41.374;2.066;2022-09-02T01:43:15;11.68;;;5.32;;
56041;SDS011;48756;41.374;2.066;2022-09-02T01:45:44;6.35;;;3.58;;
56041;SDS011;48756;41.374;2.066;2022-09-02T01:48:11;5.68;;;4.15;;
56041;SDS011;48756;41.374;2.066;2022-09-02T01:50:39;5.22;;;3.72;;
56041;SDS011;48756;41.374;2.066;2022-09-02T01:53:08;6.22;;;5.13;;
56041;SDS011;48756;41.374;2.066;2022-09-02T01:55:34;6.32;;;3.78;;
56041;SDS011;48756;41.374;2.066;2022-09-02T01:58:00;9.52;;;5.07;;
56041;SDS011;48756;41.374;2.066;2022-09-02T02:00:25;7.22;;;3.97;;
56041;SDS011;48756;41.374;2.066;2022-09-02T02:02:51;7.13;;;4.18;;
56041;SDS011;48756;41.374;2.066;2022-09-02T02:05:17;8.50;;;5.28;;
56041;SDS011;48756;41.374;2.066;2022-09-02T02:07:43;13.00;;;6.05;;
56041;SDS011;48756;41.374;2.066;2022-09-02T02:10:12;7.00;;;5.05;;
56041;SDS011;48756;41.374;2.066;2022-09-02T02:12:39;13.10;;;5.75;;
56041;SDS011;48756;41.374;2.066;2022-09-02T02:15:10;7.45;;;5.43;;
56041;SDS011;48756;41.374;2.066;2022-09-02T02:17:38;8.30;;;4.43;;
56041;SDS011;48756;41.374;2.066;2022-09-02T02:20:04;7.28;;;5.30;;
56041;SDS011;48756;41.374;2.066;2022-09-02T02:22:32;12.18;;;5.20;;
56041;SDS011;48756;41.374;2.066;2022-09-02T02:24:58;5.32;;;3.83;;
56041;SDS011;48756;41.374;2.066;2022-09-02T02:27:23;5.82;;;3.72;;
56041;SDS011;48756;41.374;2.066;2022-09-02T02:29:49;8.13;;;5.40;;
56041;SDS011;48756;41.374;2.066;2022-09-02T02:32:15;7.70;;;4.68;;
56041;SDS011;48756;41.374;2.066;2022-09-02T02:34:42;8.88;;;6.05;;
56041;SDS011;48756;41.374;2.066;2022-09-02T02:37:08;11.68;;;5.00;;
56041;SDS011;48756;41.374;2.066;2022-09-02T02:39:36;7.93;;;5.38;;
56041;SDS011;48756;41.374;2.066;2022-09-02T02:42:03;11.45;;;4.00;;
56041;SDS011;48756;41.374;2.066;2022-09-02T02:44:29;9.90;;;5.88;;
56041;SDS011;48756;41.374;2.066;2022-09-02T02:46:55;9.40;;;4.47;;
56041;SDS011;48756;41.374;2.066;2022-09-02T02:49:21;7.82;;;4.80;;
56041;SDS011;48756;41.374;2.066;2022-09-02T02:51:47;6.63;;;4.85;;
56041;SDS011;48756;41.374;2.066;2022-09-02T02:54:13;7.25;;;5.13;;
56041;SDS011;48756;41.374;2.066;2022-09-02T02:56:39;7.72;;;4.72;;
56041;SDS011;48756;41.374;2.066;2022-09-02T02:59:05;9.18;;;5.47;;
56041;SDS011;48756;41.374;2.066;2022-09-02T03:01:31;7.38;;;5.28;;
56041;SDS011;48756;41.374;2.066;2022-09-02T03:03:57;8.70;;;5.93;;
56041;SDS011;48756;41.374;2.066;2022-09-02T03:06:22;8.45;;;5.38;;
56041;SDS011;48756;41.374;2.066;2022-09-02T03:08:48;6.15;;;4.50;;
56041;SDS011;48756;41.374;2.066;2022-09-02T03:11:14;10.77;;;5.00;;
56041;SDS011;48756;41.374;2.066;2022-09-02T03:13:41;8.60;;;4.28;;
56041;SDS011;48756;41.374;2.066;2022-09-02T03:16:07;7.60;;;4.75;;
56041;SDS011;48756;41.374;2.066;2022-09-02T03:18:33;11.10;;;4.13;;
56041;SDS011;48756;41.374;2.066;2022-09-02T03:20:59;6.05;;;4.80;;
56041;SDS011;48756;41.374;2.066;2022-09-02T03:23:26;4.88;;;3.53;;
56041;SDS011;48756;41.374;2.066;2022-09-02T03:25:52;8.30;;;5.32;;
56041;SDS011;48756;41.374;2.066;2022-09-02T03:28:17;8.65;;;4.40;;
56041;SDS011;48756;41.374;2.066;2022-09-02T03:30:43;7.47;;;5.40;;
56041;SDS011;48756;41.374;2.066;2022-09-02T03:33:10;9.02;;;5.55;;
56041;SDS011;48756;41.374;2.066;2022-09-02T03:35:38;12.82;;;6.47;;
56041;SDS011;48756;41.374;2.066;2022-09-02T03:38:06;9.23;;;5.00;;
56041;SDS011;48756;41.374;2.066;2022-09-02T03:40:33;10.93;;;4.70;;
56041;SDS011;48756;41.374;2.066;2022-09-02T03:42:59;6.50;;;5.32;;
56041;SDS011;48756;41.374;2.066;2022-09-02T03:45:24;9.43;;;4.72;;
56041;SDS011;48756;41.374;2.066;2022-09-02T03:47:51;10.52;;;6.03;;
56041;SDS011;48756;41.374;2.066;2022-09-02T03:50:31;10.77;;;5.15;;
56041;SDS011;48756;41.374;2.066;2022-09-02T03:53:00;9.20;;;4.57;;
56041;SDS011;48756;41.374;2.066;2022-09-02T03:55:26;6.38;;;4.15;;
56041;SDS011;48756;41.374;2.066;2022-09-02T03:57:53;8.93;;;4.63;;
56041;SDS011;48756;41.374;2.066;2022-09-02T04:00:20;10.27;;;5.45;;
56041;SDS011;48756;41.374;2.066;2022-09-02T04:02:54;6.53;;;4.75;;
56041;SDS011;48756;41.374;2.066;2022-09-02T04:05:20;11.27;;;4.95;;
56041;SDS011;48756;41.374;2.066;2022-09-02T04:07:47;8.07;;;6.07;;
56041;SDS011;48756;41.374;2.066;2022-09-02T04:10:15;14.32;;;6.97;;
56041;SDS011;48756;41.374;2.066;2022-09-02T04:12:40;9.52;;;5.35;;
56041;SDS011;48756;41.374;2.066;2022-09-02T04:15:07;15.00;;;6.90;;
56041;SDS011;48756;41.374;2.066;2022-09-02T04:17:34;9.25;;;5.07;;
56041;SDS011;48756;41.374;2.066;2022-09-02T04:20:02;8.18;;;5.18;;
56041;SDS011;48756;41.374;2.066;2022-09-02T04:22:31;8.88;;;4.93;;
56041;SDS011;48756;41.374;2.066;2022-09-02T04:24:58;10.68;;;5.03;;
56041;SDS011;48756;41.374;2.066;2022-09-02T04:27:24;8.18;;;4.80;;
56041;SDS011;48756;41.374;2.066;2022-09-02T04:29:49;8.18;;;4.85;;
56041;SDS011;48756;41.374;2.066;2022-09-02T04:32:15;6.15;;;4.47;;
56041;SDS011;48756;41.374;2.066;2022-09-02T04:34:41;8.73;;;4.53;;
56041;SDS011;48756;41.374;2.066;2022-09-02T04:37:07;7.85;;;4.95;;
56041;SDS011;48756;41.374;2.066;2022-09-02T04:39:32;5.75;;;3.83;;
56041;SDS011;48756;41.374;2.066;2022-09-02T04:41:58;7.20;;;4.00;;
56041;SDS011;48756;41.374;2.066;2022-09-02T04:44:24;6.35;;;3.70;;
56041;SDS011;48756;41.374;2.066;2022-09-02T04:46:49;8.20;;;3.47;;
56041;SDS011;48756;41.374;2.066;2022-09-02T04:49:15;4.28;;;3.38;;
56041;SDS011;48756;41.374;2.066;2022-09-02T04:51:41;6.55;;;3.72;;
56041;SDS011;48756;41.374;2.066;2022-09-02T04:54:07;7.68;;;5.55;;
56041;SDS011;48756;41.374;2.066;2022-09-02T04:56:33;7.57;;;2.78;;
56041;SDS011;48756;41.374;2.066;2022-09-02T04:58:59;8.02;;;4.72;;
56041;SDS011;48756;41.374;2.066;2022-09-02T05:01:26;10.02;;;4.38;;
56041;SDS011;48756;41.374;2.066;2022-09-02T05:03:54;7.35;;;3.95;;
56041;SDS011;48756;41.374;2.066;2022-09-02T05:06:22;7.45;;;3.80;;
56041;SDS011;48756;41.374;2.066;2022-09-02T05:08:52;4.50;;;3.42;;
56041;SDS011;48756;41.374;2.066;2022-09-02T05:11:23;4.85;;;3.63;;
56041;SDS011;48756;41.374;2.066;2022-09-02T05:13:52;4.97;;;2.85;;
56041;SDS011;48756;41.374;2.066;2022-09-02T05:16:20;7.30;;;4.20;;
56041;SDS011;48756;41.374;2.066;2022-09-02T05:18:48;15.48;;;4.32;;
56041;SDS011;48756;41.374;2.066;2022-09-02T05:21:14;7.53;;;3.90;;
56041;SDS011;48756;41.374;2.066;2022-09-02T05:23:41;5.50;;;4.32;;
56041;SDS011;48756;41.374;2.066;2022-09-02T05:26:07;5.57;;;4.40;;
56041;SDS011;48756;41.374;2.066;2022-09-02T05:28:34;9.07;;;4.28;;
56041;SDS011;48756;41.374;2.066;2022-09-02T05:31:04;8.27;;;3.53;;
56041;SDS011;48756;41.374;2.066;2022-09-02T05:33:32;8.73;;;4.50;;
56041;SDS011;48756;41.374;2.066;2022-09-02T05:36:03;7.00;;;5.15;;
56041;SDS011;48756;41.374;2.066;2022-09-02T05:38:29;5.93;;;5.05;;
56041;SDS011;48756;41.374;2.066;2022-09-02T05:40:56;6.50;;;3.78;;
56041;SDS011;48756;41.374;2.066;2022-09-02T05:43:23;8.90;;;4.05;;
56041;SDS011;48756;41.374;2.066;2022-09-02T05:45:49;10.30;;;4.43;;
56041;SDS011;48756;41.374;2.066;2022-09-02T05:48:14;6.88;;;4.63;;
56041;SDS011;48756;41.374;2.066;2022-09-02T05:51:02;8.70;;;4.53;;
56041;SDS011;48756;41.374;2.066;2022-09-02T05:53:29;6.50;;;4.38;;
56041;SDS011;48756;41.374;2.066;2022-09-02T05:55:54;13.07;;;4.63;;
56041;SDS011;48756;41.374;2.066;2022-09-02T05:58:21;7.82;;;4.68;;
56041;SDS011;48756;41.374;2.066;2022-09-02T06:00:46;7.97;;;4.25;;
56041;SDS011;48756;41.374;2.066;2022-09-02T06:03:12;9.25;;;5.05;;
56041;SDS011;48756;41.374;2.066;2022-09-02T06:05:38;7.88;;;4.20;;
56041;SDS011;48756;41.374;2.066;2022-09-02T06:08:05;6.90;;;4.70;;
56041;SDS011;48756;41.374;2.066;2022-09-02T06:10:31;8.55;;;3.67;;
56041;SDS011;48756;41.374;2.066;2022-09-02T06:12:57;6.35;;;4.40;;
56041;SDS011;48756;41.374;2.066;2022-09-02T06:15:23;12.82;;;4.72;;
56041;SDS011;48756;41.374;2.066;2022-09-02T06:17:52;12.45;;;4.88;;
56041;SDS011;48756;41.374;2.066;2022-09-02T06:20:17;6.78;;;5.10;;
56041;SDS011;48756;41.374;2.066;2022-09-02T06:22:43;9.93;;;4.80;;
56041;SDS011;48756;41.374;2.066;2022-09-02T06:25:08;8.13;;;4.63;;
56041;SDS011;48756;41.374;2.066;2022-09-02T06:27:35;18.67;;;4.53;;
56041;SDS011;48756;41.374;2.066;2022-09-02T06:30:01;7.30;;;4.13;;
56041;SDS011;48756;41.374;2.066;2022-09-02T06:32:27;8.70;;;4.40;;
56041;SDS011;48756;41.374;2.066;2022-09-02T06:34:53;10.40;;;4.40;;
56041;SDS011;48756;41.374;2.066;2022-09-02T06:37:18;5.65;;;3.70;;
56041;SDS011;48756;41.374;2.066;2022-09-02T06:39:44;8.65;;;5.30;;
56041;SDS011;48756;41.374;2.066;2022-09-02T06:42:10;6.35;;;5.45;;
56041;SDS011;48756;41.374;2.066;2022-09-02T06:44:36;8.35;;;4.10;;
56041;SDS011;48756;41.374;2.066;2022-09-02T06:47:02;6.45;;;4.05;;
56041;SDS011;48756;41.374;2.066;2022-09-02T06:49:30;4.82;;;3.53;;
56041;SDS011;48756;41.374;2.066;2022-09-02T06:51:56;7.05;;;4.72;;
56041;SDS011;48756;41.374;2.066;2022-09-02T06:54:22;7.40;;;4.35;;
56041;SDS011;48756;41.374;2.066;2022-09-02T06:56:48;7.95;;;4.20;;
56041;SDS011;48756;41.374;2.066;2022-09-02T06:59:16;7.47;;;4.18;;
56041;SDS011;48756;41.374;2.066;2022-09-02T07:01:43;11.85;;;5.53;;
56041;SDS011;48756;41.374;2.066;2022-09-02T07:04:09;6.00;;;4.28;;
56041;SDS011;48756;41.374;2.066;2022-09-02T07:06:54;9.65;;;4.78;;
56041;SDS011;48756;41.374;2.066;2022-09-02T07:09:26;4.43;;;3.78;;
56041;SDS011;48756;41.374;2.066;2022-09-02T07:11:55;6.57;;;4.90;;
56041;SDS011;48756;41.374;2.066;2022-09-02T07:14:22;8.18;;;3.05;;
56041;SDS011;48756;41.374;2.066;2022-09-02T07:16:50;5.13;;;3.28;;
56041;SDS011;48756;41.374;2.066;2022-09-02T07:19:17;9.02;;;4.35;;
56041;SDS011;48756;41.374;2.066;2022-09-02T07:21:44;6.72;;;3.28;;
56041;SDS011;48756;41.374;2.066;2022-09-02T07:24:10;8.85;;;3.55;;
56041;SDS011;48756;41.374;2.066;2022-09-02T07:26:37;6.65;;;4.78;;
56041;SDS011;48756;41.374;2.066;2022-09-02T07:29:04;8.82;;;5.40;;
56041;SDS011;48756;41.374;2.066;2022-09-02T07:31:33;5.15;;;3.88;;
56041;SDS011;48756;41.374;2.066;2022-09-02T07:34:00;12.27;;;3.88;;
56041;SDS011;48756;41.374;2.066;2022-09-02T07:36:26;10.98;;;4.22;;
56041;SDS011;48756;41.374;2.066;2022-09-02T07:38:52;5.68;;;2.88;;
56041;SDS011;48756;41.374;2.066;2022-09-02T07:41:18;17.55;;;4.15;;
56041;SDS011;48756;41.374;2.066;2022-09-02T07:43:45;10.05;;;3.97;;
56041;SDS011;48756;41.374;2.066;2022-09-02T07:46:11;6.82;;;4.60;;
56041;SDS011;48756;41.374;2.066;2022-09-02T07:48:39;7.28;;;4.03;;
56041;SDS011;48756;41.374;2.066;2022-09-02T07:51:06;3.30;;;2.92;;
56041;SDS011;48756;41.374;2.066;2022-09-02T07:53:32;5.18;;;3.53;;
56041;SDS011;48756;41.374;2.066;2022-09-02T07:55:59;12.35;;;5.63;;
56041;SDS011;48756;41.374;2.066;2022-09-02T07:58:25;8.20;;;5.50;;
56041;SDS011;48756;41.374;2.066;2022-09-02T08:00:51;5.70;;;4.15;;
56041;SDS011;48756;41.374;2.066;2022-09-02T08:03:18;13.57;;;4.15;;
56041;SDS011;48756;41.374;2.066;2022-09-02T08:05:44;7.80;;;3.90;;
56041;SDS011;48756;41.374;2.066;2022-09-02T08:08:11;10.10;;;3.58;;
56041;SDS011;48756;41.374;2.066;2022-09-02T08:10:38;5.55;;;3.60;;
56041;SDS011;48756;41.374;2.066;2022-09-02T08:13:05;12.05;;;4.93;;
56041;SDS011;48756;41.374;2.066;2022-09-02T08:15:31;5.93;;;3.97;;
56041;SDS011;48756;41.374;2.066;2022-09-02T08:18:00;6.95;;;3.28;;
56041;SDS011;48756;41.374;2.066;2022-09-02T08:20:26;7.63;;;3.90;;
56041;SDS011;48756;41.374;2.066;2022-09-02T08:22:52;5.80;;;3.67;;
56041;SDS011;48756;41.374;2.066;2022-09-02T08:25:17;5.55;;;2.72;;
56041;SDS011;48756;41.374;2.066;2022-09-02T08:27:44;11.02;;;4.25;;
56041;SDS011;48756;41.374;2.066;2022-09-02T08:30:10;6.60;;;4.15;;
56041;SDS011;48756;41.374;2.066;2022-09-02T08:32:37;6.82;;;3.50;;
56041;SDS011;48756;41.374;2.066;2022-09-02T08:35:04;8.40;;;3.50;;
56041;SDS011;48756;41.374;2.066;2022-09-02T08:37:31;4.50;;;3.15;;
56041;SDS011;48756;41.374;2.066;2022-09-02T08:39:59;5.35;;;3.28;;
56041;SDS011;48756;41.374;2.066;2022-09-02T08:45:19;4.55;;;3.13;;
56041;SDS011;48756;41.374;2.066;2022-09-02T08:47:48;7.93;;;2.90;;
56041;SDS011;48756;41.374;2.066;2022-09-02T08:50:26;8.35;;;4.63;;
56041;SDS011;48756;41.374;2.066;2022-09-02T08:55:58;10.10;;;4.53;;
56041;SDS011;48756;41.374;2.066;2022-09-02T08:58:28;11.13;;;5.05;;
56041;SDS011;48756;41.374;2.066;2022-09-02T09:09:25;8.75;;;3.20;;
56041;SDS011;48756;41.374;2.066;2022-09-02T09:14:57;7.00;;;2.92;;
56041;SDS011;48756;41.374;2.066;2022-09-02T09:17:45;5.43;;;3.10;;
56041;SDS011;48756;41.374;2.066;2022-09-02T09:20:20;6.60;;;3.17;;
56041;SDS011;48756;41.374;2.066;2022-09-02T09:22:50;9.25;;;3.67;;
56041;SDS011;48756;41.374;2.066;2022-09-02T09:25:20;19.10;;;6.50;;
56041;SDS011;48756;41.374;2.066;2022-09-02T09:27:57;9.40;;;2.70;;
56041;SDS011;48756;41.374;2.066;2022-09-02T09:30:24;7.65;;;3.83;;
56041;SDS011;48756;41.374;2.066;2022-09-02T09:32:53;7.50;;;3.63;;
56041;SDS011;48756;41.374;2.066;2022-09-02T09:35:21;7.82;;;3.90;;
56041;SDS011;48756;41.374;2.066;2022-09-02T09:37:48;7.43;;;3.80;;
56041;SDS011;48756;41.374;2.066;2022-09-02T09:53:26;9.48;;;3.55;;
56041;SDS011;48756;41.374;2.066;2022-09-02T09:55:57;7.57;;;3.40;;
56041;SDS011;48756;41.374;2.066;2022-09-02T10:04:03;8.30;;;3.95;;
56041;SDS011;48756;41.374;2.066;2022-09-02T10:08:57;6.45;;;1.60;;
56041;SDS011;48756;41.374;2.066;2022-09-02T10:11:26;8.95;;;2.45;;
56041;SDS011;48756;41.374;2.066;2022-09-02T10:14:01;8.00;;;2.63;;
56041;SDS011;48756;41.374;2.066;2022-09-02T10:16:38;5.20;;;2.08;;
56041;SDS011;48756;41.374;2.066;2022-09-02T10:19:23;8.52;;;1.83;;
56041;SDS011;48756;41.374;2.066;2022-09-02T10:25:03;5.20;;;2.40;;
56041;SDS011;48756;41.374;2.066;2022-09-02T10:27:54;5.97;;;2.60;;
56041;SDS011;48756;41.374;2.066;2022-09-02T10:30:22;7.78;;;2.40;;
56041;SDS011;48756;41.374;2.066;2022-09-02T10:33:02;9.00;;;2.60;;
56041;SDS011;48756;41.374;2.066;2022-09-02T10:35:42;6.03;;;2.90;;
56041;SDS011;48756;41.374;2.066;2022-09-02T10:46:41;5.13;;;3.00;;
56041;SDS011;48756;41.374;2.066;2022-09-02T10:57:12;11.95;;;3.50;;
56041;SDS011;48756;41.374;2.066;2022-09-02T10:59:52;11.35;;;4.50;;
56041;SDS011;48756;41.374;2.066;2022-09-02T11:02:20;6.18;;;2.63;;
56041;SDS011;48756;41.374;2.066;2022-09-02T11:05:01;9.27;;;3.00;;
56041;SDS011;48756;41.374;2.066;2022-09-02T11:07:35;6.25;;;2.03;;
56041;SDS011;48756;41.374;2.066;2022-09-02T11:10:09;7.88;;;1.92;;
56041;SDS011;48756;41.374;2.066;2022-09-02T11:12:47;7.43;;;3.88;;
56041;SDS011;48756;41.374;2.066;2022-09-02T11:15:52;7.72;;;2.28;;
56041;SDS011;48756;41.374;2.066;2022-09-02T11:18:37;5.20;;;2.50;;
56041;SDS011;48756;41.374;2.066;2022-09-02T11:21:23;10.68;;;2.47;;
56041;SDS011;48756;41.374;2.066;2022-09-02T11:24:01;6.30;;;1.90;;
56041;SDS011;48756;41.374;2.066;2022-09-02T11:26:37;6.65;;;1.92;;
56041;SDS011;48756;41.374;2.066;2022-09-02T11:29:17;6.88;;;1.85;;
56041;SDS011;48756;41.374;2.066;2022-09-02T11:31:49;4.32;;;2.15;;
56041;SDS011;48756;41.374;2.066;2022-09-02T11:34:33;4.63;;;2.13;;
56041;SDS011;48756;41.374;2.066;2022-09-02T11:37:03;6.28;;;1.52;;
56041;SDS011;48756;41.374;2.066;2022-09-02T11:53:17;8.00;;;2.67;;
56041;SDS011;48756;41.374;2.066;2022-09-02T11:56:06;7.38;;;2.22;;
56041;SDS011;48756;41.374;2.066;2022-09-02T11:58:38;5.97;;;3.53;;
56041;SDS011;48756;41.374;2.066;2022-09-02T12:03:43;7.15;;;2.38;;
56041;SDS011;48756;41.374;2.066;2022-09-02T12:06:13;4.43;;;2.55;;
56041;SDS011;48756;41.374;2.066;2022-09-02T12:11:09;6.07;;;1.63;;
56041;SDS011;48756;41.374;2.066;2022-09-02T12:17:04;10.27;;;2.53;;
56041;SDS011;48756;41.374;2.066;2022-09-02T12:30:05;8.68;;;2.20;;
56041;SDS011;48756;41.374;2.066;2022-09-02T12:35:10;11.00;;;2.67;;
56041;SDS011;48756;41.374;2.066;2022-09-02T12:40:54;7.80;;;3.40;;
56041;SDS011;48756;41.374;2.066;2022-09-02T12:43:32;8.02;;;2.22;;
56041;SDS011;48756;41.374;2.066;2022-09-02T12:46:20;7.55;;;3.28;;
56041;SDS011;48756;41.374;2.066;2022-09-02T12:48:58;6.57;;;2.63;;
56041;SDS011;48756;41.374;2.066;2022-09-02T12:57:01;10.95;;;2.42;;
56041;SDS011;48756;41.374;2.066;2022-09-02T12:59:29;10.93;;;2.53;;
56041;SDS011;48756;41.374;2.066;2022-09-02T13:04:45;5.65;;;2.72;;
56041;SDS011;48756;41.374;2.066;2022-09-02T13:30:49;6.88;;;2.13;;
56041;SDS011;48756;41.374;2.066;2022-09-02T13:33:22;4.00;;;1.75;;
56041;SDS011;48756;41.374;2.066;2022-09-02T13:35:54;9.93;;;3.40;;
56041;SDS011;48756;41.374;2.066;2022-09-02T13:38:23;7.50;;;2.25;;
56041;SDS011;48756;41.374;2.066;2022-09-02T13:40:50;8.55;;;3.10;;
56041;SDS011;48756;41.374;2.066;2022-09-02T13:43:17;11.05;;;3.88;;
56041;SDS011;48756;41.374;2.066;2022-09-02T13:45:45;8.90;;;2.13;;
56041;SDS011;48756;41.374;2.066;2022-09-02T13:50:48;8.55;;;2.25;;
56041;SDS011;48756;41.374;2.066;2022-09-02T13:55:59;7.47;;;2.47;;
56041;SDS011;48756;41.374;2.066;2022-09-02T14:00:55;3.53;;;1.88;;
56041;SDS011;48756;41.374;2.066;2022-09-02T14:03:22;11.18;;;3.53;;
56041;SDS011;48756;41.374;2.066;2022-09-02T14:05:49;7.55;;;2.38;;
56041;SDS011;48756;41.374;2.066;2022-09-02T14:08:20;3.70;;;2.97;;
56041;SDS011;48756;41.374;2.066;2022-09-02T14:10:47;6.85;;;2.75;;
56041;SDS011;48756;41.374;2.066;2022-09-02T14:13:16;5.70;;;2.13;;
56041;SDS011;48756;41.374;2.066;2022-09-02T14:15:42;6.90;;;2.42;;
56041;SDS011;48756;41.374;2.066;2022-09-02T14:18:21;5.43;;;1.40;;
56041;SDS011;48756;41.374;2.066;2022-09-02T14:23:47;9.15;;;3.97;;
56041;SDS011;48756;41.374;2.066;2022-09-02T14:26:33;8.68;;;2.08;;
56041;SDS011;48756;41.374;2.066;2022-09-02T14:29:04;12.40;;;3.13;;
56041;SDS011;48756;41.374;2.066;2022-09-02T14:31:30;10.45;;;2.75;;
56041;SDS011;48756;41.374;2.066;2022-09-02T14:33:58;6.85;;;2.13;;
56041;SDS011;48756;41.374;2.066;2022-09-02T14:36:34;4.32;;;2.55;;
56041;SDS011;48756;41.374;2.066;2022-09-02T14:39:14;8.90;;;3.95;;
56041;SDS011;48756;41.374;2.066;2022-09-02T14:41:45;6.57;;;2.35;;
56041;SDS011;48756;41.374;2.066;2022-09-02T14:44:34;8.40;;;2.88;;
56041;SDS011;48756;41.374;2.066;2022-09-02T14:47:01;8.82;;;2.30;;
56041;SDS011;48756;41.374;2.066;2022-09-02T14:49:36;11.45;;;4.05;;
56041;SDS011;48756;41.374;2.066;2022-09-02T14:52:19;7.72;;;3.20;;
56041;SDS011;48756;41.374;2.066;2022-09-02T14:54:48;7.63;;;2.90;;
56041;SDS011;48756;41.374;2.066;2022-09-02T14:57:19;10.18;;;3.70;;
56041;SDS011;48756;41.374;2.066;2022-09-02T14:59:45;13.77;;;3.20;;
56041;SDS011;48756;41.374;2.066;2022-09-02T15:04:59;6.55;;;3.33;;
56041;SDS011;48756;41.374;2.066;2022-09-02T15:07:26;14.15;;;2.97;;
56041;SDS011;48756;41.374;2.066;2022-09-02T15:09:52;11.75;;;2.95;;
56041;SDS011;48756;41.374;2.066;2022-09-02T15:12:22;9.70;;;2.67;;
56041;SDS011;48756;41.374;2.066;2022-09-02T15:14:51;10.85;;;2.83;;
56041;SDS011;48756;41.374;2.066;2022-09-02T15:17:17;7.75;;;3.58;;
56041;SDS011;48756;41.374;2.066;2022-09-02T15:19:44;7.80;;;2.92;;
56041;SDS011;48756;41.374;2.066;2022-09-02T15:22:10;11.13;;;2.75;;
56041;SDS011;48756;41.374;2.066;2022-09-02T15:24:35;14.70;;;3.53;;
56041;SDS011;48756;41.374;2.066;2022-09-02T15:27:01;7.28;;;3.50;;
56041;SDS011;48756;41.374;2.066;2022-09-02T15:29:27;9.95;;;2.55;;
56041;SDS011;48756;41.374;2.066;2022-09-02T15:31:53;11.60;;;3.95;;
56041;SDS011;48756;41.374;2.066;2022-09-02T15:34:22;8.18;;;3.15;;
56041;SDS011;48756;41.374;2.066;2022-09-02T15:36:48;10.18;;;3.30;;
56041;SDS011;48756;41.374;2.066;2022-09-02T15:39:14;14.23;;;2.65;;
56041;SDS011;48756;41.374;2.066;2022-09-02T15:41:44;15.27;;;2.95;;
56041;SDS011;48756;41.374;2.066;2022-09-02T15:44:09;18.88;;;2.88;;
56041;SDS011;48756;41.374;2.066;2022-09-02T15:46:35;11.68;;;2.38;;
56041;SDS011;48756;41.374;2.066;2022-09-02T15:49:03;8.68;;;2.40;;
56041;SDS011;48756;41.374;2.066;2022-09-02T15:51:30;10.27;;;3.08;;
56041;SDS011;48756;41.374;2.066;2022-09-02T15:53:58;13.88;;;3.45;;
56041;SDS011;48756;41.374;2.066;2022-09-02T15:56:26;6.65;;;3.13;;
56041;SDS011;48756;41.374;2.066;2022-09-02T15:59:00;8.23;;;3.15;;
56041;SDS011;48756;41.374;2.066;2022-09-02T16:01:28;9.93;;;2.78;;
56041;SDS011;48756;41.374;2.066;2022-09-02T16:03:55;7.25;;;2.85;;
56041;SDS011;48756;41.374;2.066;2022-09-02T16:06:22;8.45;;;3.63;;
56041;SDS011;48756;41.374;2.066;2022-09-02T16:08:49;13.70;;;3.20;;
56041;SDS011;48756;41.374;2.066;2022-09-02T16:11:15;15.02;;;3.15;;
56041;SDS011;48756;41.374;2.066;2022-09-02T16:13:42;16.58;;;3.65;;
56041;SDS011;48756;41.374;2.066;2022-09-02T16:16:08;8.45;;;2.88;;
56041;SDS011;48756;41.374;2.066;2022-09-02T16:18:36;8.27;;;3.08;;
56041;SDS011;48756;41.374;2.066;2022-09-02T16:21:03;10.98;;;3.13;;
56041;SDS011;48756;41.374;2.066;2022-09-02T16:23:30;11.48;;;4.10;;
56041;SDS011;48756;41.374;2.066;2022-09-02T16:26:06;9.70;;;2.25;;
56041;SDS011;48756;41.374;2.066;2022-09-02T16:28:35;5.68;;;1.63;;
56041;SDS011;48756;41.374;2.066;2022-09-02T16:31:02;10.60;;;3.42;;
56041;SDS011;48756;41.374;2.066;2022-09-02T16:33:29;5.55;;;1.60;;
56041;SDS011;48756;41.374;2.066;2022-09-02T16:35:54;4.40;;;1.88;;
56041;SDS011;48756;41.374;2.066;2022-09-02T16:38:20;14.43;;;3.10;;
56041;SDS011;48756;41.374;2.066;2022-09-02T16:40:52;3.45;;;1.25;;
56041;SDS011;48756;41.374;2.066;2022-09-02T16:43:20;6.15;;;2.85;;
56041;SDS011;48756;41.374;2.066;2022-09-02T16:45:47;2.42;;;1.50;;
56041;SDS011;48756;41.374;2.066;2022-09-02T16:48:15;4.28;;;1.40;;
56041;SDS011;48756;41.374;2.066;2022-09-02T16:50:43;4.75;;;2.05;;
56041;SDS011;48756;41.374;2.066;2022-09-02T16:53:09;5.45;;;1.48;;
56041;SDS011;48756;41.374;2.066;2022-09-02T16:55:38;3.58;;;1.55;;
56041;SDS011;48756;41.374;2.066;2022-09-02T16:58:05;2.90;;;1.40;;
56041;SDS011;48756;41.374;2.066;2022-09-02T17:00:31;20.30;;;2.33;;
56041;SDS011;48756;41.374;2.066;2022-09-02T17:02:56;7.95;;;4.00;;
56041;SDS011;48756;41.374;2.066;2022-09-02T17:05:22;3.22;;;1.10;;
56041;SDS011;48756;41.374;2.066;2022-09-02T17:07:47;3.95;;;2.15;;
56041;SDS011;48756;41.374;2.066;2022-09-02T17:10:13;3.55;;;1.08;;
56041;SDS011;48756;41.374;2.066;2022-09-02T17:12:39;1.77;;;1.33;;
56041;SDS011;48756;41.374;2.066;2022-09-02T17:15:04;3.15;;;1.73;;
56041;SDS011;48756;41.374;2.066;2022-09-02T17:17:30;6.22;;;1.50;;